sensor_id;sensor_type;location;lat;lon;timestamp;P1;durP1;ratioP1;P2;durP2;ratioP2
20022;SDS011;10172;42.054;24.546;2023-08-01T00:01:01;2.20;;;1.50;;
20022;SDS011;10172;42.054;24.546;2023-08-01T00:03:27;2.22;;;1.60;;
20022;SDS011;10172;42.054;24.546;2023-08-01T00:05:53;3.30;;;1.67;;
20022;SDS011;10172;42.054;24.546;2023-08-01T00:08:20;3.08;;;1.45;;
20022;SDS011;10172;42.054;24.546;2023-08-01T00:10:45;1.60;;;1.33;;
20022;SDS011;10172;42.054;24.546;2023-08-01T00:13:11;4.63;;;1.55;;
20022;SDS011;10172;42.054;24.546;2023-08-01T00:15:36;3.10;;;1.65;;
20022;SDS011;10172;42.054;24.546;2023-08-01T00:18:02;1.40;;;1.30;;
20022;SDS011;10172;42.054;24.546;2023-08-01T00:20:28;1.90;;;1.33;;
20022;SDS011;10172;42.054;24.546;2023-08-01T00:22:53;2.42;;;1.60;;
20022;SDS011;10172;42.054;24.546;2023-08-01T00:25:19;1.80;;;1.45;;
20022;SDS011;10172;42.054;24.546;2023-08-01T00:27:45;2.47;;;1.85;;
20022;SDS011;10172;42.054;24.546;2023-08-01T00:30:10;2.65;;;1.55;;
20022;SDS011;10172;42.054;24.546;2023-08-01T00:32:36;2.90;;;1.60;;
20022;SDS011;10172;42.054;24.546;2023-08-01T00:35:02;1.92;;;1.50;;
20022;SDS011;10172;42.054;24.546;2023-08-01T00:37:28;2.85;;;1.83;;
20022;SDS011;10172;42.054;24.546;2023-08-01T00:39:54;3.55;;;1.90;;
20022;SDS011;10172;42.054;24.546;2023-08-01T00:42:19;2.53;;;1.58;;
20022;SDS011;10172;42.054;24.546;2023-08-01T00:44:45;2.72;;;1.55;;
20022;SDS011;10172;42.054;24.546;2023-08-01T00:47:12;2.88;;;1.63;;
20022;SDS011;10172;42.054;24.546;2023-08-01T00:49:38;1.92;;;1.50;;
20022;SDS011;10172;42.054;24.546;2023-08-01T00:52:04;2.30;;;1.60;;
20022;SDS011;10172;42.054;24.546;2023-08-01T00:54:30;2.42;;;1.55;;
20022;SDS011;10172;42.054;24.546;2023-08-01T00:57:00;2.45;;;1.70;;
20022;SDS011;10172;42.054;24.546;2023-08-01T00:59:28;3.17;;;1.73;;
20022;SDS011;10172;42.054;24.546;2023-08-01T01:01:53;3.15;;;1.92;;
20022;SDS011;10172;42.054;24.546;2023-08-01T01:04:19;2.67;;;1.50;;
20022;SDS011;10172;42.054;24.546;2023-08-01T01:06:45;2.95;;;1.70;;
20022;SDS011;10172;42.054;24.546;2023-08-01T01:09:15;1.48;;;1.35;;
20022;SDS011;10172;42.054;24.546;2023-08-01T01:11:44;2.25;;;1.60;;
20022;SDS011;10172;42.054;24.546;2023-08-01T01:14:10;3.05;;;1.90;;
20022;SDS011;10172;42.054;24.546;2023-08-01T01:16:36;1.83;;;1.50;;
20022;SDS011;10172;42.054;24.546;2023-08-01T01:19:05;2.53;;;1.50;;
20022;SDS011;10172;42.054;24.546;2023-08-01T01:21:33;2.53;;;1.80;;
20022;SDS011;10172;42.054;24.546;2023-08-01T01:24:00;2.10;;;1.50;;
20022;SDS011;10172;42.054;24.546;2023-08-01T01:26:28;3.63;;;1.88;;
20022;SDS011;10172;42.054;24.546;2023-08-01T01:28:53;4.10;;;2.03;;
20022;SDS011;10172;42.054;24.546;2023-08-01T01:31:19;3.15;;;1.85;;
20022;SDS011;10172;42.054;24.546;2023-08-01T01:33:45;1.95;;;1.50;;
20022;SDS011;10172;42.054;24.546;2023-08-01T01:36:11;2.47;;;1.88;;
20022;SDS011;10172;42.054;24.546;2023-08-01T01:38:36;2.30;;;1.60;;
20022;SDS011;10172;42.054;24.546;2023-08-01T01:41:02;3.40;;;1.70;;
20022;SDS011;10172;42.054;24.546;2023-08-01T01:43:27;2.30;;;1.60;;
20022;SDS011;10172;42.054;24.546;2023-08-01T01:45:53;2.67;;;1.58;;
20022;SDS011;10172;42.054;24.546;2023-08-01T01:48:18;2.83;;;1.83;;
20022;SDS011;10172;42.054;24.546;2023-08-01T01:50:44;2.63;;;1.90;;
20022;SDS011;10172;42.054;24.546;2023-08-01T01:53:09;2.72;;;1.50;;
20022;SDS011;10172;42.054;24.546;2023-08-01T01:55:34;2.33;;;1.70;;
20022;SDS011;10172;42.054;24.546;2023-08-01T01:58:00;2.15;;;1.70;;
20022;SDS011;10172;42.054;24.546;2023-08-01T02:00:26;2.20;;;1.63;;
20022;SDS011;10172;42.054;24.546;2023-08-01T02:02:51;2.58;;;2.03;;
20022;SDS011;10172;42.054;24.546;2023-08-01T02:05:16;2.22;;;1.73;;
20022;SDS011;10172;42.054;24.546;2023-08-01T02:07:42;2.72;;;1.77;;
20022;SDS011;10172;42.054;24.546;2023-08-01T02:10:07;3.22;;;2.08;;
20022;SDS011;10172;42.054;24.546;2023-08-01T02:12:33;2.47;;;1.77;;
20022;SDS011;10172;42.054;24.546;2023-08-01T02:15:00;4.93;;;1.77;;
20022;SDS011;10172;42.054;24.546;2023-08-01T02:17:26;4.90;;;1.90;;
20022;SDS011;10172;42.054;24.546;2023-08-01T02:19:51;2.25;;;1.80;;
20022;SDS011;10172;42.054;24.546;2023-08-01T02:22:17;2.63;;;1.70;;
20022;SDS011;10172;42.054;24.546;2023-08-01T02:24:42;2.60;;;1.83;;
20022;SDS011;10172;42.054;24.546;2023-08-01T02:27:08;3.17;;;1.63;;
20022;SDS011;10172;42.054;24.546;2023-08-01T02:29:34;3.60;;;2.10;;
20022;SDS011;10172;42.054;24.546;2023-08-01T02:31:59;2.17;;;1.80;;
20022;SDS011;10172;42.054;24.546;2023-08-01T02:34:24;2.40;;;1.88;;
20022;SDS011;10172;42.054;24.546;2023-08-01T02:36:50;2.28;;;1.75;;
20022;SDS011;10172;42.054;24.546;2023-08-01T02:39:15;2.58;;;1.85;;
20022;SDS011;10172;42.054;24.546;2023-08-01T02:41:41;2.97;;;2.05;;
20022;SDS011;10172;42.054;24.546;2023-08-01T02:44:06;2.70;;;1.77;;
20022;SDS011;10172;42.054;24.546;2023-08-01T02:46:32;3.25;;;1.98;;
20022;SDS011;10172;42.054;24.546;2023-08-01T02:48:57;2.42;;;1.88;;
20022;SDS011;10172;42.054;24.546;2023-08-01T02:51:23;3.33;;;1.90;;
20022;SDS011;10172;42.054;24.546;2023-08-01T02:53:48;2.78;;;1.70;;
20022;SDS011;10172;42.054;24.546;2023-08-01T02:56:13;5.07;;;1.90;;
20022;SDS011;10172;42.054;24.546;2023-08-01T02:58:39;3.72;;;1.73;;
20022;SDS011;10172;42.054;24.546;2023-08-01T03:01:08;3.45;;;2.10;;
20022;SDS011;10172;42.054;24.546;2023-08-01T03:03:37;2.75;;;1.77;;
20022;SDS011;10172;42.054;24.546;2023-08-01T03:06:02;2.75;;;2.10;;
20022;SDS011;10172;42.054;24.546;2023-08-01T03:08:28;3.17;;;2.30;;
20022;SDS011;10172;42.054;24.546;2023-08-01T03:10:54;3.38;;;1.52;;
20022;SDS011;10172;42.054;24.546;2023-08-01T03:13:19;2.40;;;1.88;;
20022;SDS011;10172;42.054;24.546;2023-08-01T03:15:45;2.90;;;1.90;;
20022;SDS011;10172;42.054;24.546;2023-08-01T03:18:10;6.40;;;2.20;;
20022;SDS011;10172;42.054;24.546;2023-08-01T03:20:36;2.72;;;1.88;;
20022;SDS011;10172;42.054;24.546;2023-08-01T03:23:02;2.70;;;1.92;;
20022;SDS011;10172;42.054;24.546;2023-08-01T03:25:27;3.63;;;2.00;;
20022;SDS011;10172;42.054;24.546;2023-08-01T03:27:53;3.92;;;1.95;;
20022;SDS011;10172;42.054;24.546;2023-08-01T03:30:19;2.15;;;1.67;;
20022;SDS011;10172;42.054;24.546;2023-08-01T03:32:46;5.13;;;1.85;;
20022;SDS011;10172;42.054;24.546;2023-08-01T03:35:12;2.80;;;1.90;;
20022;SDS011;10172;42.054;24.546;2023-08-01T03:37:39;2.67;;;1.92;;
20022;SDS011;10172;42.054;24.546;2023-08-01T03:40:05;2.92;;;2.08;;
20022;SDS011;10172;42.054;24.546;2023-08-01T03:42:34;2.60;;;1.77;;
20022;SDS011;10172;42.054;24.546;2023-08-01T03:45:00;2.00;;;1.55;;
20022;SDS011;10172;42.054;24.546;2023-08-01T03:47:25;3.33;;;1.75;;
20022;SDS011;10172;42.054;24.546;2023-08-01T03:49:51;2.92;;;1.80;;
20022;SDS011;10172;42.054;24.546;2023-08-01T03:52:16;2.03;;;1.63;;
20022;SDS011;10172;42.054;24.546;2023-08-01T03:54:41;2.92;;;1.80;;
20022;SDS011;10172;42.054;24.546;2023-08-01T03:57:07;4.65;;;1.90;;
20022;SDS011;10172;42.054;24.546;2023-08-01T03:59:32;4.07;;;2.00;;
20022;SDS011;10172;42.054;24.546;2023-08-01T04:01:58;2.53;;;1.58;;
20022;SDS011;10172;42.054;24.546;2023-08-01T04:04:23;3.20;;;1.75;;
20022;SDS011;10172;42.054;24.546;2023-08-01T04:06:49;2.63;;;1.65;;
20022;SDS011;10172;42.054;24.546;2023-08-01T04:09:14;2.75;;;1.73;;
20022;SDS011;10172;42.054;24.546;2023-08-01T04:11:40;2.97;;;1.90;;
20022;SDS011;10172;42.054;24.546;2023-08-01T04:14:05;3.20;;;1.95;;
20022;SDS011;10172;42.054;24.546;2023-08-01T04:16:31;1.98;;;1.60;;
20022;SDS011;10172;42.054;24.546;2023-08-01T04:18:56;2.58;;;1.70;;
20022;SDS011;10172;42.054;24.546;2023-08-01T04:21:22;2.13;;;1.58;;
20022;SDS011;10172;42.054;24.546;2023-08-01T04:23:47;4.28;;;1.70;;
20022;SDS011;10172;42.054;24.546;2023-08-01T04:26:13;3.17;;;1.73;;
20022;SDS011;10172;42.054;24.546;2023-08-01T04:28:38;2.40;;;1.73;;
20022;SDS011;10172;42.054;24.546;2023-08-01T04:31:04;2.53;;;1.60;;
20022;SDS011;10172;42.054;24.546;2023-08-01T04:33:29;4.40;;;2.00;;
20022;SDS011;10172;42.054;24.546;2023-08-01T04:35:55;3.65;;;1.73;;
20022;SDS011;10172;42.054;24.546;2023-08-01T04:38:20;4.63;;;1.85;;
20022;SDS011;10172;42.054;24.546;2023-08-01T04:40:46;3.53;;;1.95;;
20022;SDS011;10172;42.054;24.546;2023-08-01T04:43:12;1.30;;;1.20;;
20022;SDS011;10172;42.054;24.546;2023-08-01T04:45:39;3.55;;;1.55;;
20022;SDS011;10172;42.054;24.546;2023-08-01T04:48:04;2.63;;;1.45;;
20022;SDS011;10172;42.054;24.546;2023-08-01T04:50:30;2.95;;;1.40;;
20022;SDS011;10172;42.054;24.546;2023-08-01T04:52:55;2.03;;;1.33;;
20022;SDS011;10172;42.054;24.546;2023-08-01T04:55:21;2.17;;;1.20;;
20022;SDS011;10172;42.054;24.546;2023-08-01T04:57:46;2.63;;;1.80;;
20022;SDS011;10172;42.054;24.546;2023-08-01T05:00:12;2.30;;;1.58;;
20022;SDS011;10172;42.054;24.546;2023-08-01T05:02:38;2.30;;;1.48;;
20022;SDS011;10172;42.054;24.546;2023-08-01T05:05:03;3.75;;;2.00;;
20022;SDS011;10172;42.054;24.546;2023-08-01T05:07:29;2.15;;;1.58;;
20022;SDS011;10172;42.054;24.546;2023-08-01T05:09:55;2.17;;;1.40;;
20022;SDS011;10172;42.054;24.546;2023-08-01T05:12:21;3.83;;;1.65;;
20022;SDS011;10172;42.054;24.546;2023-08-01T05:14:46;4.78;;;1.67;;
20022;SDS011;10172;42.054;24.546;2023-08-01T05:17:12;4.25;;;1.65;;
20022;SDS011;10172;42.054;24.546;2023-08-01T05:19:38;3.47;;;1.60;;
20022;SDS011;10172;42.054;24.546;2023-08-01T05:22:04;1.58;;;1.30;;
20022;SDS011;10172;42.054;24.546;2023-08-01T05:24:29;3.17;;;1.70;;
20022;SDS011;10172;42.054;24.546;2023-08-01T05:26:55;3.67;;;1.77;;
20022;SDS011;10172;42.054;24.546;2023-08-01T05:29:20;2.33;;;1.55;;
20022;SDS011;10172;42.054;24.546;2023-08-01T05:31:46;1.70;;;1.38;;
20022;SDS011;10172;42.054;24.546;2023-08-01T05:34:11;2.30;;;1.45;;
20022;SDS011;10172;42.054;24.546;2023-08-01T05:36:36;3.88;;;1.38;;
20022;SDS011;10172;42.054;24.546;2023-08-01T05:39:02;2.50;;;1.33;;
20022;SDS011;10172;42.054;24.546;2023-08-01T05:41:28;1.60;;;1.13;;
20022;SDS011;10172;42.054;24.546;2023-08-01T05:43:54;2.80;;;1.40;;
20022;SDS011;10172;42.054;24.546;2023-08-01T05:46:20;3.13;;;1.70;;
20022;SDS011;10172;42.054;24.546;2023-08-01T05:48:45;2.22;;;1.10;;
20022;SDS011;10172;42.054;24.546;2023-08-01T05:51:11;1.65;;;1.30;;
20022;SDS011;10172;42.054;24.546;2023-08-01T05:53:37;1.77;;;1.27;;
20022;SDS011;10172;42.054;24.546;2023-08-01T05:56:02;2.03;;;1.45;;
20022;SDS011;10172;42.054;24.546;2023-08-01T05:58:29;1.60;;;1.20;;
20022;SDS011;10172;42.054;24.546;2023-08-01T06:00:55;1.95;;;1.30;;
20022;SDS011;10172;42.054;24.546;2023-08-01T06:03:21;1.58;;;1.27;;
20022;SDS011;10172;42.054;24.546;2023-08-01T06:05:46;2.15;;;1.40;;
20022;SDS011;10172;42.054;24.546;2023-08-01T06:08:12;2.42;;;1.42;;
20022;SDS011;10172;42.054;24.546;2023-08-01T06:10:38;2.35;;;1.30;;
20022;SDS011;10172;42.054;24.546;2023-08-01T06:13:04;2.13;;;1.40;;
20022;SDS011;10172;42.054;24.546;2023-08-01T06:15:29;3.13;;;1.55;;
20022;SDS011;10172;42.054;24.546;2023-08-01T06:17:55;3.05;;;1.80;;
20022;SDS011;10172;42.054;24.546;2023-08-01T06:20:20;2.03;;;1.55;;
20022;SDS011;10172;42.054;24.546;2023-08-01T06:22:45;1.80;;;1.27;;
20022;SDS011;10172;42.054;24.546;2023-08-01T06:25:11;2.63;;;1.48;;
20022;SDS011;10172;42.054;24.546;2023-08-01T06:27:37;6.10;;;1.50;;
20022;SDS011;10172;42.054;24.546;2023-08-01T06:30:03;3.08;;;1.60;;
20022;SDS011;10172;42.054;24.546;2023-08-01T06:32:29;1.88;;;1.50;;
20022;SDS011;10172;42.054;24.546;2023-08-01T06:34:54;2.65;;;1.42;;
20022;SDS011;10172;42.054;24.546;2023-08-01T06:37:20;2.28;;;1.30;;
20022;SDS011;10172;42.054;24.546;2023-08-01T06:39:45;1.98;;;1.50;;
20022;SDS011;10172;42.054;24.546;2023-08-01T06:42:11;1.83;;;1.20;;
20022;SDS011;10172;42.054;24.546;2023-08-01T06:44:36;2.05;;;1.52;;
20022;SDS011;10172;42.054;24.546;2023-08-01T06:47:02;1.67;;;1.38;;
20022;SDS011;10172;42.054;24.546;2023-08-01T06:49:27;3.35;;;1.50;;
20022;SDS011;10172;42.054;24.546;2023-08-01T06:51:52;3.13;;;1.38;;
20022;SDS011;10172;42.054;24.546;2023-08-01T06:54:18;2.40;;;1.60;;
20022;SDS011;10172;42.054;24.546;2023-08-01T06:56:43;3.45;;;1.58;;
20022;SDS011;10172;42.054;24.546;2023-08-01T06:59:13;2.95;;;1.80;;
20022;SDS011;10172;42.054;24.546;2023-08-01T07:01:40;2.95;;;1.70;;
20022;SDS011;10172;42.054;24.546;2023-08-01T07:04:12;3.05;;;1.80;;
20022;SDS011;10172;42.054;24.546;2023-08-01T07:06:38;3.53;;;2.00;;
20022;SDS011;10172;42.054;24.546;2023-08-01T07:09:04;4.18;;;2.40;;
20022;SDS011;10172;42.054;24.546;2023-08-01T07:11:31;4.13;;;2.03;;
20022;SDS011;10172;42.054;24.546;2023-08-01T07:13:57;2.78;;;2.00;;
20022;SDS011;10172;42.054;24.546;2023-08-01T07:16:23;4.18;;;1.65;;
20022;SDS011;10172;42.054;24.546;2023-08-01T07:18:48;3.47;;;1.50;;
20022;SDS011;10172;42.054;24.546;2023-08-01T07:21:15;3.63;;;1.98;;
20022;SDS011;10172;42.054;24.546;2023-08-01T07:23:41;2.10;;;1.45;;
20022;SDS011;10172;42.054;24.546;2023-08-01T07:26:06;2.60;;;1.50;;
20022;SDS011;10172;42.054;24.546;2023-08-01T07:28:32;1.75;;;1.35;;
20022;SDS011;10172;42.054;24.546;2023-08-01T07:31:01;2.47;;;1.52;;
20022;SDS011;10172;42.054;24.546;2023-08-01T07:33:27;3.30;;;1.63;;
20022;SDS011;10172;42.054;24.546;2023-08-01T07:35:53;2.50;;;1.60;;
20022;SDS011;10172;42.054;24.546;2023-08-01T07:38:19;2.13;;;1.58;;
20022;SDS011;10172;42.054;24.546;2023-08-01T07:40:45;3.15;;;1.90;;
20022;SDS011;10172;42.054;24.546;2023-08-01T07:43:10;2.88;;;1.77;;
20022;SDS011;10172;42.054;24.546;2023-08-01T07:45:36;2.67;;;1.55;;
20022;SDS011;10172;42.054;24.546;2023-08-01T07:48:02;1.95;;;1.45;;
20022;SDS011;10172;42.054;24.546;2023-08-01T07:50:28;2.25;;;1.50;;
20022;SDS011;10172;42.054;24.546;2023-08-01T07:52:53;2.58;;;1.55;;
20022;SDS011;10172;42.054;24.546;2023-08-01T07:55:19;2.53;;;1.63;;
20022;SDS011;10172;42.054;24.546;2023-08-01T07:57:46;2.08;;;1.52;;
20022;SDS011;10172;42.054;24.546;2023-08-01T08:00:11;1.52;;;1.35;;
20022;SDS011;10172;42.054;24.546;2023-08-01T08:02:37;1.58;;;1.38;;
20022;SDS011;10172;42.054;24.546;2023-08-01T08:05:03;2.90;;;1.58;;
20022;SDS011;10172;42.054;24.546;2023-08-01T08:07:28;1.27;;;0.90;;
20022;SDS011;10172;42.054;24.546;2023-08-01T08:09:54;2.67;;;1.70;;
20022;SDS011;10172;42.054;24.546;2023-08-01T08:12:23;2.65;;;1.70;;
20022;SDS011;10172;42.054;24.546;2023-08-01T08:14:48;2.20;;;1.50;;
20022;SDS011;10172;42.054;24.546;2023-08-01T08:17:14;5.28;;;1.58;;
20022;SDS011;10172;42.054;24.546;2023-08-01T08:19:40;1.70;;;1.23;;
20022;SDS011;10172;42.054;24.546;2023-08-01T08:22:06;2.00;;;1.58;;
20022;SDS011;10172;42.054;24.546;2023-08-01T08:24:31;1.90;;;1.60;;
20022;SDS011;10172;42.054;24.546;2023-08-01T08:26:57;2.03;;;1.45;;
20022;SDS011;10172;42.054;24.546;2023-08-01T08:29:22;1.75;;;1.17;;
20022;SDS011;10172;42.054;24.546;2023-08-01T08:31:48;2.42;;;1.42;;
20022;SDS011;10172;42.054;24.546;2023-08-01T08:34:14;1.60;;;1.20;;
20022;SDS011;10172;42.054;24.546;2023-08-01T08:36:39;2.88;;;1.35;;
20022;SDS011;10172;42.054;24.546;2023-08-01T08:39:05;2.50;;;1.20;;
20022;SDS011;10172;42.054;24.546;2023-08-01T08:41:35;2.10;;;1.13;;
20022;SDS011;10172;42.054;24.546;2023-08-01T08:44:05;2.03;;;1.23;;
20022;SDS011;10172;42.054;24.546;2023-08-01T08:46:34;1.48;;;1.35;;
20022;SDS011;10172;42.054;24.546;2023-08-01T08:49:06;2.25;;;1.50;;
20022;SDS011;10172;42.054;24.546;2023-08-01T08:51:31;5.05;;;1.30;;
20022;SDS011;10172;42.054;24.546;2023-08-01T08:53:57;2.30;;;1.40;;
20022;SDS011;10172;42.054;24.546;2023-08-01T08:56:24;3.53;;;1.60;;
20022;SDS011;10172;42.054;24.546;2023-08-01T08:58:49;2.78;;;1.60;;
20022;SDS011;10172;42.054;24.546;2023-08-01T09:01:17;2.60;;;1.17;;
20022;SDS011;10172;42.054;24.546;2023-08-01T09:03:44;1.85;;;1.30;;
20022;SDS011;10172;42.054;24.546;2023-08-01T09:06:31;1.38;;;0.98;;
20022;SDS011;10172;42.054;24.546;2023-08-01T09:09:04;1.73;;;1.23;;
20022;SDS011;10172;42.054;24.546;2023-08-01T09:11:46;4.82;;;1.30;;
20022;SDS011;10172;42.054;24.546;2023-08-01T09:14:11;3.55;;;1.40;;
20022;SDS011;10172;42.054;24.546;2023-08-01T09:16:37;2.30;;;1.30;;
20022;SDS011;10172;42.054;24.546;2023-08-01T09:19:05;1.83;;;1.30;;
20022;SDS011;10172;42.054;24.546;2023-08-01T09:21:31;2.40;;;1.35;;
20022;SDS011;10172;42.054;24.546;2023-08-01T09:24:07;1.80;;;1.15;;
20022;SDS011;10172;42.054;24.546;2023-08-01T09:26:33;3.70;;;1.27;;
20022;SDS011;10172;42.054;24.546;2023-08-01T09:28:59;1.77;;;1.17;;
20022;SDS011;10172;42.054;24.546;2023-08-01T09:31:31;2.63;;;1.38;;
20022;SDS011;10172;42.054;24.546;2023-08-01T09:34:02;3.42;;;1.38;;
20022;SDS011;10172;42.054;24.546;2023-08-01T09:36:30;1.92;;;1.30;;
20022;SDS011;10172;42.054;24.546;2023-08-01T09:39:00;2.30;;;1.20;;
20022;SDS011;10172;42.054;24.546;2023-08-01T09:41:29;2.78;;;1.35;;
20022;SDS011;10172;42.054;24.546;2023-08-01T09:43:56;2.45;;;1.33;;
20022;SDS011;10172;42.054;24.546;2023-08-01T09:46:22;2.13;;;1.20;;
20022;SDS011;10172;42.054;24.546;2023-08-01T09:48:48;1.73;;;1.20;;
20022;SDS011;10172;42.054;24.546;2023-08-01T09:51:14;2.17;;;1.33;;
20022;SDS011;10172;42.054;24.546;2023-08-01T09:53:48;3.35;;;1.30;;
20022;SDS011;10172;42.054;24.546;2023-08-01T09:56:16;1.73;;;1.27;;
20022;SDS011;10172;42.054;24.546;2023-08-01T09:58:45;1.98;;;1.20;;
20022;SDS011;10172;42.054;24.546;2023-08-01T10:01:12;2.28;;;1.30;;
20022;SDS011;10172;42.054;24.546;2023-08-01T10:03:39;2.70;;;1.70;;
20022;SDS011;10172;42.054;24.546;2023-08-01T10:06:09;3.17;;;1.50;;
20022;SDS011;10172;42.054;24.546;2023-08-01T10:08:38;1.85;;;1.20;;
20022;SDS011;10172;42.054;24.546;2023-08-01T10:11:04;2.58;;;1.73;;
20022;SDS011;10172;42.054;24.546;2023-08-01T10:13:30;1.88;;;1.27;;
20022;SDS011;10172;42.054;24.546;2023-08-01T10:15:57;2.70;;;1.35;;
20022;SDS011;10172;42.054;24.546;2023-08-01T10:18:23;3.90;;;1.60;;
20022;SDS011;10172;42.054;24.546;2023-08-01T10:20:49;1.88;;;1.20;;
20022;SDS011;10172;42.054;24.546;2023-08-01T10:23:15;2.40;;;1.38;;
20022;SDS011;10172;42.054;24.546;2023-08-01T10:25:41;1.73;;;1.38;;
20022;SDS011;10172;42.054;24.546;2023-08-01T10:28:08;2.25;;;1.40;;
20022;SDS011;10172;42.054;24.546;2023-08-01T10:30:33;1.95;;;1.30;;
20022;SDS011;10172;42.054;24.546;2023-08-01T10:32:59;1.42;;;1.20;;
20022;SDS011;10172;42.054;24.546;2023-08-01T10:35:35;2.78;;;1.33;;
20022;SDS011;10172;42.054;24.546;2023-08-01T10:40:34;2.17;;;1.52;;
20022;SDS011;10172;42.054;24.546;2023-08-01T10:43:00;3.08;;;1.55;;
20022;SDS011;10172;42.054;24.546;2023-08-01T10:45:26;2.83;;;1.73;;
20022;SDS011;10172;42.054;24.546;2023-08-01T10:47:53;1.95;;;1.50;;
20022;SDS011;10172;42.054;24.546;2023-08-01T10:50:19;1.88;;;1.55;;
20022;SDS011;10172;42.054;24.546;2023-08-01T10:52:45;2.70;;;1.60;;
20022;SDS011;10172;42.054;24.546;2023-08-01T10:55:11;6.90;;;1.65;;
20022;SDS011;10172;42.054;24.546;2023-08-01T10:57:47;2.67;;;1.60;;
20022;SDS011;10172;42.054;24.546;2023-08-01T11:00:15;1.92;;;1.50;;
20022;SDS011;10172;42.054;24.546;2023-08-01T11:02:42;2.20;;;1.65;;
20022;SDS011;10172;42.054;24.546;2023-08-01T11:05:15;5.30;;;1.90;;
20022;SDS011;10172;42.054;24.546;2023-08-01T11:07:40;2.83;;;1.75;;
20022;SDS011;10172;42.054;24.546;2023-08-01T11:10:10;3.00;;;1.73;;
20022;SDS011;10172;42.054;24.546;2023-08-01T11:12:37;2.97;;;2.13;;
20022;SDS011;10172;42.054;24.546;2023-08-01T11:15:08;4.95;;;1.92;;
20022;SDS011;10172;42.054;24.546;2023-08-01T11:17:36;3.45;;;2.10;;
20022;SDS011;10172;42.054;24.546;2023-08-01T11:20:04;3.72;;;1.80;;
20022;SDS011;10172;42.054;24.546;2023-08-01T11:22:31;3.83;;;2.30;;
20022;SDS011;10172;42.054;24.546;2023-08-01T11:24:57;2.67;;;2.00;;
20022;SDS011;10172;42.054;24.546;2023-08-01T11:27:23;4.63;;;2.30;;
20022;SDS011;10172;42.054;24.546;2023-08-01T11:29:49;3.28;;;2.22;;
20022;SDS011;10172;42.054;24.546;2023-08-01T11:32:14;8.32;;;2.92;;
20022;SDS011;10172;42.054;24.546;2023-08-01T11:34:41;4.63;;;2.67;;
20022;SDS011;10172;42.054;24.546;2023-08-01T11:37:11;3.75;;;2.25;;
20022;SDS011;10172;42.054;24.546;2023-08-01T11:39:38;4.22;;;2.80;;
20022;SDS011;10172;42.054;24.546;2023-08-01T11:42:04;4.05;;;2.17;;
20022;SDS011;10172;42.054;24.546;2023-08-01T11:44:30;4.13;;;2.22;;
20022;SDS011;10172;42.054;24.546;2023-08-01T11:46:55;4.57;;;2.10;;
20022;SDS011;10172;42.054;24.546;2023-08-01T11:49:21;3.60;;;2.30;;
20022;SDS011;10172;42.054;24.546;2023-08-01T11:51:47;3.45;;;2.35;;
20022;SDS011;10172;42.054;24.546;2023-08-01T11:54:13;6.05;;;2.78;;
20022;SDS011;10172;42.054;24.546;2023-08-01T11:56:40;4.53;;;2.58;;
20022;SDS011;10172;42.054;24.546;2023-08-01T11:59:08;3.85;;;2.50;;
20022;SDS011;10172;42.054;24.546;2023-08-01T12:01:44;5.10;;;2.20;;
20022;SDS011;10172;42.054;24.546;2023-08-01T12:04:11;3.30;;;2.03;;
20022;SDS011;10172;42.054;24.546;2023-08-01T12:06:48;5.28;;;2.40;;
20022;SDS011;10172;42.054;24.546;2023-08-01T12:09:13;3.15;;;2.55;;
20022;SDS011;10172;42.054;24.546;2023-08-01T12:11:39;5.18;;;2.55;;
20022;SDS011;10172;42.054;24.546;2023-08-01T12:16:42;7.68;;;2.15;;
20022;SDS011;10172;42.054;24.546;2023-08-01T12:19:18;3.10;;;2.30;;
20022;SDS011;10172;42.054;24.546;2023-08-01T12:21:45;3.67;;;2.00;;
20022;SDS011;10172;42.054;24.546;2023-08-01T12:24:11;3.78;;;2.53;;
20022;SDS011;10172;42.054;24.546;2023-08-01T12:26:37;4.03;;;2.40;;
20022;SDS011;10172;42.054;24.546;2023-08-01T12:29:02;3.83;;;2.60;;
20022;SDS011;10172;42.054;24.546;2023-08-01T12:31:28;3.83;;;2.60;;
20022;SDS011;10172;42.054;24.546;2023-08-01T12:33:54;4.55;;;2.75;;
20022;SDS011;10172;42.054;24.546;2023-08-01T12:36:19;3.50;;;2.63;;
20022;SDS011;10172;42.054;24.546;2023-08-01T12:38:45;3.53;;;2.45;;
20022;SDS011;10172;42.054;24.546;2023-08-01T12:41:11;3.55;;;2.65;;
20022;SDS011;10172;42.054;24.546;2023-08-01T12:43:37;4.05;;;2.65;;
20022;SDS011;10172;42.054;24.546;2023-08-01T12:46:02;3.95;;;2.28;;
20022;SDS011;10172;42.054;24.546;2023-08-01T12:48:28;4.07;;;2.88;;
20022;SDS011;10172;42.054;24.546;2023-08-01T12:50:54;3.08;;;2.40;;
20022;SDS011;10172;42.054;24.546;2023-08-01T12:53:20;4.25;;;2.58;;
20022;SDS011;10172;42.054;24.546;2023-08-01T12:55:47;3.75;;;2.30;;
20022;SDS011;10172;42.054;24.546;2023-08-01T12:58:14;6.07;;;2.60;;
20022;SDS011;10172;42.054;24.546;2023-08-01T13:00:40;3.35;;;2.35;;
20022;SDS011;10172;42.054;24.546;2023-08-01T13:03:06;6.65;;;2.67;;
20022;SDS011;10172;42.054;24.546;2023-08-01T13:05:36;4.47;;;3.08;;
20022;SDS011;10172;42.054;24.546;2023-08-01T13:08:03;4.18;;;2.50;;
20022;SDS011;10172;42.054;24.546;2023-08-01T13:10:32;5.45;;;2.85;;
20022;SDS011;10172;42.054;24.546;2023-08-01T13:12:59;3.72;;;2.60;;
20022;SDS011;10172;42.054;24.546;2023-08-01T13:15:25;4.10;;;2.55;;
20022;SDS011;10172;42.054;24.546;2023-08-01T13:17:50;3.88;;;2.53;;
20022;SDS011;10172;42.054;24.546;2023-08-01T13:20:16;3.75;;;2.65;;
20022;SDS011;10172;42.054;24.546;2023-08-01T13:22:42;3.65;;;2.75;;
20022;SDS011;10172;42.054;24.546;2023-08-01T13:25:09;3.88;;;2.80;;
20022;SDS011;10172;42.054;24.546;2023-08-01T13:27:35;6.03;;;2.75;;
20022;SDS011;10172;42.054;24.546;2023-08-01T13:30:01;4.50;;;3.00;;
20022;SDS011;10172;42.054;24.546;2023-08-01T13:32:27;5.47;;;3.35;;
20022;SDS011;10172;42.054;24.546;2023-08-01T13:34:53;4.00;;;2.42;;
20022;SDS011;10172;42.054;24.546;2023-08-01T13:37:18;3.13;;;2.53;;
20022;SDS011;10172;42.054;24.546;2023-08-01T13:39:44;4.38;;;2.90;;
20022;SDS011;10172;42.054;24.546;2023-08-01T13:42:11;3.90;;;2.78;;
20022;SDS011;10172;42.054;24.546;2023-08-01T13:44:37;2.88;;;2.33;;
20022;SDS011;10172;42.054;24.546;2023-08-01T13:47:02;3.75;;;2.60;;
20022;SDS011;10172;42.054;24.546;2023-08-01T13:49:29;4.40;;;2.90;;
20022;SDS011;10172;42.054;24.546;2023-08-01T13:51:54;3.90;;;2.65;;
20022;SDS011;10172;42.054;24.546;2023-08-01T13:54:20;3.47;;;2.67;;
20022;SDS011;10172;42.054;24.546;2023-08-01T13:56:45;3.80;;;2.95;;
20022;SDS011;10172;42.054;24.546;2023-08-01T13:59:11;3.53;;;2.90;;
20022;SDS011;10172;42.054;24.546;2023-08-01T14:01:36;4.68;;;3.05;;
20022;SDS011;10172;42.054;24.546;2023-08-01T14:04:03;4.38;;;2.78;;
20022;SDS011;10172;42.054;24.546;2023-08-01T14:06:29;4.53;;;2.80;;
20022;SDS011;10172;42.054;24.546;2023-08-01T14:08:55;3.83;;;2.60;;
20022;SDS011;10172;42.054;24.546;2023-08-01T14:11:20;3.55;;;2.67;;
20022;SDS011;10172;42.054;24.546;2023-08-01T14:13:45;4.88;;;2.92;;
20022;SDS011;10172;42.054;24.546;2023-08-01T14:16:11;4.80;;;2.67;;
20022;SDS011;10172;42.054;24.546;2023-08-01T14:18:36;4.65;;;3.13;;
20022;SDS011;10172;42.054;24.546;2023-08-01T14:21:02;7.32;;;3.97;;
20022;SDS011;10172;42.054;24.546;2023-08-01T14:23:27;5.15;;;3.00;;
20022;SDS011;10172;42.054;24.546;2023-08-01T14:25:53;3.63;;;2.80;;
20022;SDS011;10172;42.054;24.546;2023-08-01T14:28:18;4.68;;;3.50;;
20022;SDS011;10172;42.054;24.546;2023-08-01T14:30:44;5.07;;;3.38;;
20022;SDS011;10172;42.054;24.546;2023-08-01T14:33:09;5.82;;;3.50;;